Pittsboro, NC

7:06 AM EST on March 04, 2015 (GMT -0500)
Raleigh Executive Jetport | Change Station
CLOSE
Current Station
Airport
Location: Sanford,
Elevation: 246 ft
Nearby Weather Stations
Active Advisory: Dense Fog Advisory Active Notice: Public Information Statement

Elev 246 ft 35.58 °N, 79.10 °W | Updated 11 minutes ago

Fog
Fog
43 °F
Feels Like 41 °F
N
4
Wind Variable Wind from SW

Today
High -- | Low -- °F
--% Chance of Precip.
Yesterday
High -- | Low -- °F
Precip. -- in
6:43 AM 6:14 PM
Waxing Gibbous, 99% visible
Pressure 30.02 in
Visibility 0.5 miles
Clouds Overcast 100 ft
Windchill 41 °F
Dew Point 43 °F
Humidity 100%
Rainfall 0.00 in
Snow Depth Not available.
UV 0 out of 12
Pollen 5.60 out of 12
Air Quality Not available.
Flu Activity Not available.
METAR KTTA 041155Z AUTO 23003KT 1/2SM FG OVC001 06/06 A3002 RMK AO2 70001 T00590059 10059 20037

More Conditions Fewer Conditions

Pressure 30.02 in
Visibility 0.5 miles
Clouds Overcast 100 ft
Windchill 41 °F
Dew Point 43 °F
Humidity 100%
Rainfall 0.00 in
Snow Depth Not available.
UV 0 out of 12
Pollen 5.60 out of 12
Air Quality Not available.
Flu Activity Not available.
METAR KTTA 041155Z AUTO 23003KT 1/2SM FG OVC001 06/06 A3002 RMK AO2 70001 T00590059 10059 20037

More Conditions Fewer Conditions

10-Day Weather Forecast

Almanac

Astronomy

Mar. 04, 2015 Rise Set
Actual Time
Civil Twilight
Nautical Twilight
Astronomical Twilight
Moon
Length of Visible Light
Length of Day
Tomorrow will be .
, % of the Moon is Illuminated

Today's Extremes

State Highs State Lows

Community

WunderPhotos

Upload Photos

1,802,436 photos uploaded!

WunderBlogs® & News

Nearby

Air Quality

  Air Quality AQ Index Pollutant
Not available.

Snow Depth

Station Depth Elevation

Earthquake Activity

City Distance Mag. Time & Date
Minimum magnitude displayed is 2.5.

Coastal Water Temperatures

Place Temperature

Nearby Weather Stations

Dense Fog Advisory
Statement as of 4:37 AM EST on March 04, 2015

... Dense fog advisory now in effect until noon EST today...

* locations... all of central North Carolina.

* Visibility... widespread visibilities of a quarter mile or
less. Areas of near zero visibility around sunrise through mid
morning.

* Impacts... travel will be impacted by the near zero visibilities

* timing... dense fog is expected through the morning commute...
with improvements beginning by mid to late morning... breaking
out into sunshine by early afternoon.

Precautionary/preparedness actions...

A dense fog advisory means visibilities will frequently be
reduced to less than one quarter mile. If driving... slow down...
use your headlights... and leave plenty of distance ahead of you.



Badgett